Time;durP1;ratioP1;P1;durP2;ratioP2;P2;SDS_P1;SDS_P2;PMS_P1;PMS_P2;Temp;Humidity;BMP_temperature;BMP_pressure;BME280_temperature;BME280_humidity;BME280_pressure;Samples;Min_cycle;Max_cycle;Signal;HPM_P1;HPM_P2
2020/12/31 00:01:58;;;;;;;5.18;2.70;;;6.30;85.30;;;;;;5092875;28;20070;-62
2020/12/31 00:04:24;;;;;;;4.45;1.80;;;6.30;85.20;;;;;;5093046;28;20410;-62
2020/12/31 00:06:50;;;;;;;4.13;2.22;;;6.30;85.20;;;;;;5092120;28;20067;-62
2020/12/31 00:09:16;;;;;;;3.40;2.60;;;6.40;85.20;;;;;;5092432;28;20056;-62
2020/12/31 00:11:42;;;;;;;2.08;1.85;;;6.30;85.10;;;;;;5092903;28;20153;-62
2020/12/31 00:14:08;;;;;;;6.70;2.53;;;6.30;85.00;;;;;;5092040;28;20024;-62
2020/12/31 00:16:37;;;;;;;2.67;1.77;;;6.40;85.10;;;;;;5092906;28;20024;-62
2020/12/31 00:19:03;;;;;;;4.35;2.35;;;6.40;85.00;;;;;;5092228;28;20032;-62
2020/12/31 00:21:29;;;;;;;4.22;2.90;;;6.30;84.90;;;;;;5092274;28;20031;-62
2020/12/31 00:23:54;;;;;;;5.75;3.40;;;6.30;84.80;;;;;;5095426;28;20024;-62
2020/12/31 00:26:20;;;;;;;3.88;2.60;;;6.30;84.80;;;;;;5096214;28;20086;-62
2020/12/31 00:28:46;;;;;;;7.53;4.57;;;6.30;84.70;;;;;;5096697;28;20028;-62
2020/12/31 00:31:11;;;;;;;12.38;4.10;;;6.30;84.70;;;;;;5096493;28;20353;-62
2020/12/31 00:33:37;;;;;;;11.55;5.05;;;6.30;84.80;;;;;;5096288;28;20044;-62
2020/12/31 00:36:03;;;;;;;8.95;5.32;;;6.30;84.80;;;;;;5096611;28;20027;-62
2020/12/31 00:38:28;;;;;;;3.70;2.53;;;6.30;84.90;;;;;;5096417;28;20105;-62
2020/12/31 00:40:54;;;;;;;8.50;4.60;;;6.20;84.90;;;;;;5096301;28;20051;-62
2020/12/31 00:43:22;;;;;;;8.70;4.35;;;6.20;85.10;;;;;;5096409;28;20055;-62
2020/12/31 00:45:49;;;;;;;4.47;3.25;;;6.20;85.30;;;;;;5096658;28;20028;-62
2020/12/31 00:48:14;;;;;;;10.20;4.68;;;6.20;85.30;;;;;;5095941;28;20495;-62
2020/12/31 00:50:40;;;;;;;8.20;4.40;;;6.10;85.30;;;;;;5096219;28;20024;-62
2020/12/31 00:53:07;;;;;;;5.75;3.58;;;6.20;85.40;;;;;;5094839;28;20109;-62
2020/12/31 00:55:34;;;;;;;8.70;5.10;;;6.20;85.40;;;;;;5094389;28;20020;-62
2020/12/31 00:58:00;;;;;;;13.40;4.78;;;6.10;85.30;;;;;;5096238;28;20081;-62
2020/12/31 01:00:29;;;;;;;10.27;5.72;;;6.20;85.40;;;;;;5095990;28;20032;-62
2020/12/31 01:03:04;;;;;;;9.10;4.88;;;6.20;85.50;;;;;;5094257;28;20036;-62
2020/12/31 01:05:30;;;;;;;6.65;4.00;;;6.10;85.40;;;;;;5095913;28;20028;-62
2020/12/31 01:07:55;;;;;;;15.85;6.00;;;6.20;85.50;;;;;;5096364;28;20035;-62
2020/12/31 01:10:21;;;;;;;7.93;4.28;;;6.20;85.60;;;;;;5095477;28;20039;-62
2020/12/31 01:12:47;;;;;;;12.50;5.10;;;6.20;85.60;;;;;;5096041;28;20472;-62
2020/12/31 01:15:12;;;;;;;10.98;5.85;;;6.20;86.30;;;;;;5096039;28;20382;-62
2020/12/31 01:17:38;;;;;;;9.05;5.15;;;6.10;85.70;;;;;;5095003;28;20049;-62
2020/12/31 01:20:04;;;;;;;9.50;4.45;;;6.10;85.70;;;;;;5095859;28;20024;-62
2020/12/31 01:22:30;;;;;;;10.52;6.20;;;6.20;85.80;;;;;;5095636;28;20058;-62
2020/12/31 01:24:56;;;;;;;7.45;4.68;;;6.20;85.90;;;;;;5095588;28;20032;-62
2020/12/31 01:27:21;;;;;;;8.07;5.22;;;6.10;85.80;;;;;;5095885;28;20077;-62
2020/12/31 01:29:47;;;;;;;10.68;5.25;;;6.20;85.90;;;;;;5094987;28;20040;-62
2020/12/31 01:32:13;;;;;;;16.60;8.10;;;6.20;85.90;;;;;;5095562;28;20051;-62
2020/12/31 01:34:38;;;;;;;11.70;7.22;;;6.20;85.80;;;;;;5094643;28;20426;-62
2020/12/31 01:37:04;;;;;;;7.95;5.15;;;6.20;85.90;;;;;;5095319;28;20024;-62
2020/12/31 01:39:30;;;;;;;19.13;6.63;;;6.20;86.00;;;;;;5095457;28;20387;-62
2020/12/31 01:42:02;;;;;;;9.20;5.68;;;6.20;86.00;;;;;;5095358;28;20513;-62
2020/12/31 01:44:28;;;;;;;11.82;6.68;;;6.20;86.00;;;;;;5094739;28;20028;-62
2020/12/31 01:46:59;;;;;;;19.55;8.27;;;6.20;86.00;;;;;;5095274;28;20089;-62
2020/12/31 01:49:27;;;;;;;12.52;6.50;;;6.20;86.10;;;;;;5095228;28;20035;-62
2020/12/31 01:51:53;;;;;;;18.77;8.07;;;6.20;86.20;;;;;;5094644;28;20092;-62
2020/12/31 01:54:20;;;;;;;14.98;7.70;;;6.20;86.10;;;;;;5095126;28;20040;-62
2020/12/31 01:56:48;;;;;;;13.65;7.10;;;6.20;86.00;;;;;;5095155;28;20482;-62
2020/12/31 01:59:15;;;;;;;19.77;11.27;;;6.30;86.20;;;;;;5094386;28;20043;-62
2020/12/31 02:01:41;;;;;;;7.80;5.30;;;6.20;86.20;;;;;;5094859;28;20089;-62
2020/12/31 02:04:06;;;;;;;16.52;9.65;;;6.20;86.30;;;;;;5095383;28;20036;-62
2020/12/31 02:06:33;;;;;;;15.40;8.98;;;6.20;86.30;;;;;;5094434;28;20036;-62
2020/12/31 02:08:59;;;;;;;14.00;8.40;;;6.20;86.30;;;;;;5094824;28;20103;-62
2020/12/31 02:11:25;;;;;;;19.27;8.02;;;6.30;86.40;;;;;;5094887;28;20047;-62
2020/12/31 02:13:51;;;;;;;14.20;6.15;;;6.20;86.20;;;;;;5093998;28;20489;-62
2020/12/31 02:16:20;;;;;;;10.70;5.75;;;6.20;86.20;;;;;;5094618;28;20356;-62
2020/12/31 02:19:06;;;;;;;18.75;9.27;;;6.30;86.20;;;;;;5094325;28;20395;-62
2020/12/31 02:21:36;;;;;;;16.15;7.28;;;6.30;86.20;;;;;;5094343;28;20043;-62
2020/12/31 02:24:07;;;;;;;13.88;7.10;;;6.30;86.10;;;;;;5094786;28;20115;-62
2020/12/31 02:26:35;;;;;;;11.35;5.97;;;6.30;86.10;;;;;;5093873;28;20070;-62
2020/12/31 02:29:03;;;;;;;15.15;6.18;;;6.40;86.00;;;;;;5094964;28;20027;-62
2020/12/31 02:31:28;;;;;;;6.65;5.07;;;6.40;85.90;;;;;;5094530;28;20024;-62
2020/12/31 02:33:56;;;;;;;5.95;4.38;;;6.40;85.90;;;;;;5093929;28;20086;-62
2020/12/31 02:36:25;;;;;;;17.40;9.07;;;6.40;85.90;;;;;;5094277;28;20054;-62
2020/12/31 02:38:51;;;;;;;11.73;6.82;;;6.40;85.90;;;;;;5094389;28;20149;-62
2020/12/31 02:41:17;;;;;;;11.48;6.65;;;6.40;85.90;;;;;;5093387;28;20047;-62
2020/12/31 02:43:43;;;;;;;9.48;5.93;;;6.40;85.90;;;;;;5094277;28;20569;-62
2020/12/31 02:46:11;;;;;;;7.63;3.92;;;6.40;85.80;;;;;;5093638;28;20039;-62
2020/12/31 02:48:37;;;;;;;12.73;7.20;;;6.50;85.90;;;;;;5093229;28;20028;-62
2020/12/31 02:51:04;;;;;;;17.00;7.95;;;6.40;85.80;;;;;;5083254;28;20033;-62
2020/12/31 02:53:29;;;;;;;6.97;4.88;;;6.40;85.90;;;;;;5090327;28;20080;-62
2020/12/31 02:55:55;;;;;;;11.02;5.25;;;6.40;85.90;;;;;;5093340;28;20101;-62
2020/12/31 02:58:21;;;;;;;8.18;5.30;;;6.40;86.00;;;;;;5094005;28;20036;-62
2020/12/31 03:00:46;;;;;;;8.07;4.32;;;6.40;85.90;;;;;;5093279;28;20024;-62
2020/12/31 03:03:12;;;;;;;10.40;5.55;;;6.40;85.90;;;;;;5093717;28;20043;-62
2020/12/31 03:05:38;;;;;;;13.13;7.10;;;6.50;85.90;;;;;;5088802;28;20028;-62
2020/12/31 03:08:04;;;;;;;10.90;6.30;;;6.50;85.90;;;;;;5088596;28;20115;-62
2020/12/31 03:10:30;;;;;;;8.35;5.53;;;6.50;85.80;;;;;;5093593;28;20027;-62
2020/12/31 03:12:56;;;;;;;8.95;5.95;;;6.50;85.70;;;;;;5093501;28;20028;-62
2020/12/31 03:15:22;;;;;;;19.20;8.45;;;6.50;85.60;;;;;;5093321;28;20038;-62
2020/12/31 03:17:48;;;;;;;21.98;9.88;;;6.50;85.60;;;;;;5093232;28;20036;-62
2020/12/31 03:20:13;;;;;;;13.75;7.72;;;6.60;85.50;;;;;;5093578;28;20074;-62
2020/12/31 03:22:39;;;;;;;17.77;9.32;;;6.50;85.50;;;;;;5092828;28;20036;-62
2020/12/31 03:25:06;;;;;;;8.27;4.10;;;6.50;85.70;;;;;;5082909;28;20112;-62
2020/12/31 03:27:32;;;;;;;11.55;6.03;;;6.50;85.70;;;;;;5093507;28;20081;-62
2020/12/31 03:29:58;;;;;;;7.88;3.97;;;6.50;85.80;;;;;;5092641;28;20039;-62
2020/12/31 03:32:24;;;;;;;7.32;3.67;;;6.50;85.90;;;;;;5093112;28;20016;-62
2020/12/31 03:34:49;;;;;;;12.73;7.50;;;6.50;85.90;;;;;;5093221;28;20024;-62
2020/12/31 03:37:15;;;;;;;8.63;5.63;;;6.50;86.00;;;;;;5092685;28;20471;-62
2020/12/31 03:39:41;;;;;;;11.10;5.97;;;6.50;86.00;;;;;;5092871;28;20043;-62
2020/12/31 03:42:07;;;;;;;6.68;3.55;;;6.50;86.00;;;;;;5093376;28;20421;-62
2020/12/31 03:44:33;;;;;;;7.78;4.78;;;6.50;86.60;;;;;;5092565;28;20374;-62
2020/12/31 03:46:59;;;;;;;9.65;5.45;;;6.50;86.00;;;;;;5092623;28;20035;-62
2020/12/31 03:49:25;;;;;;;10.07;4.90;;;6.50;85.90;;;;;;5086904;28;20031;-62
2020/12/31 03:51:50;;;;;;;9.60;5.38;;;6.50;85.90;;;;;;5081382;28;20459;-62
2020/12/31 03:54:16;;;;;;;11.52;4.63;;;6.60;86.00;;;;;;5080508;28;20044;-62
2020/12/31 03:56:42;;;;;;;5.25;4.00;;;6.60;85.90;;;;;;5081106;28;20059;-62
2020/12/31 03:59:08;;;;;;;10.35;5.93;;;6.50;85.80;;;;;;5083927;28;20465;-62
2020/12/31 04:01:35;;;;;;;7.18;4.28;;;6.60;85.80;;;;;;5093032;28;20023;-62
2020/12/31 04:04:01;;;;;;;5.18;3.22;;;6.60;85.80;;;;;;5092791;28;20105;-62
2020/12/31 04:06:28;;;;;;;5.47;3.63;;;6.50;85.70;;;;;;5092318;28;20055;-62
2020/12/31 04:08:53;;;;;;;5.68;2.45;;;6.60;85.70;;;;;;5092689;28;20395;-62
2020/12/31 04:11:19;;;;;;;5.40;3.35;;;6.60;85.60;;;;;;5092478;28;20032;-62
2020/12/31 04:13:48;;;;;;;12.27;6.18;;;6.60;85.50;;;;;;5092675;28;20463;-62
2020/12/31 04:16:14;;;;;;;8.57;5.25;;;6.60;85.60;;;;;;5092864;28;20032;-62
2020/12/31 04:18:40;;;;;;;3.83;2.45;;;6.60;85.50;;;;;;5092071;28;20078;-62
2020/12/31 04:21:06;;;;;;;2.47;1.90;;;6.60;85.60;;;;;;5092487;28;20032;-62
2020/12/31 04:23:31;;;;;;;8.35;3.47;;;6.50;86.00;;;;;;5092571;28;20093;-62
2020/12/31 04:25:57;;;;;;;2.63;1.92;;;6.60;85.50;;;;;;5092074;28;20476;-62
2020/12/31 04:28:23;;;;;;;4.22;3.25;;;6.50;85.50;;;;;;5092833;28;20036;-62
2020/12/31 04:30:49;;;;;;;6.32;3.13;;;6.50;85.50;;;;;;5092600;28;20364;-62
2020/12/31 04:33:16;;;;;;;5.53;3.38;;;6.50;85.50;;;;;;5091979;28;20023;-62
2020/12/31 04:35:42;;;;;;;7.30;3.70;;;6.50;85.50;;;;;;5092474;28;20036;-62
2020/12/31 04:38:08;;;;;;;8.18;5.03;;;6.50;85.40;;;;;;5092250;28;20411;-62
2020/12/31 04:40:34;;;;;;;6.53;4.53;;;6.50;85.40;;;;;;5091739;28;20028;-62
2020/12/31 04:43:01;;;;;;;6.25;3.92;;;6.50;85.50;;;;;;5092250;28;20480;-62
2020/12/31 04:45:28;;;;;;;5.82;3.30;;;6.40;85.40;;;;;;5092705;28;20028;-62
2020/12/31 04:48:00;;;;;;;6.63;3.58;;;6.40;85.60;;;;;;5091638;28;20448;-62
2020/12/31 04:50:32;;;;;;;4.20;2.92;;;6.40;85.70;;;;;;5092346;28;20410;-62
2020/12/31 04:53:09;;;;;;;1.88;1.77;;;6.40;85.60;;;;;;5092383;28;20040;-62
2020/12/31 04:55:46;;;;;;;7.60;4.00;;;6.40;85.70;;;;;;5091698;28;20127;-62
2020/12/31 04:58:16;;;;;;;4.05;2.38;;;6.40;85.70;;;;;;5092105;28;20036;-62
2020/12/31 05:00:43;;;;;;;6.95;2.22;;;6.40;85.60;;;;;;5091890;28;20407;-62
2020/12/31 05:03:09;;;;;;;2.55;1.83;;;6.50;85.50;;;;;;5091850;28;20518;-62
2020/12/31 05:05:36;;;;;;;2.15;1.80;;;6.40;85.50;;;;;;5092503;28;20077;-62
2020/12/31 05:08:03;;;;;;;3.00;2.20;;;6.40;85.30;;;;;;5091507;28;20540;-62
2020/12/31 05:10:29;;;;;;;3.80;2.65;;;6.50;85.30;;;;;;5094014;28;20075;-62
2020/12/31 05:13:03;;;;;;;2.05;1.75;;;6.50;85.20;;;;;;5096054;28;20089;-62
2020/12/31 05:15:40;;;;;;;4.28;2.13;;;6.40;85.10;;;;;;5094997;28;20456;-62
2020/12/31 05:18:25;;;;;;;4.05;3.00;;;6.40;85.00;;;;;;5096171;28;20044;-62
2020/12/31 05:20:52;;;;;;;5.13;2.58;;;6.40;84.90;;;;;;5095894;28;20089;-63
2020/12/31 05:23:26;;;;;;;4.63;3.05;;;6.40;84.80;;;;;;5095299;28;20043;-62
2020/12/31 05:25:53;;;;;;;3.67;2.30;;;6.30;84.90;;;;;;5095700;28;20058;-62
2020/12/31 05:28:33;;;;;;;3.17;1.30;;;6.30;84.90;;;;;;5096089;28;20115;-62
2020/12/31 05:31:00;;;;;;;4.57;2.70;;;6.30;85.20;;;;;;5095560;28;20067;-62
2020/12/31 05:33:31;;;;;;;3.60;1.40;;;6.20;85.10;;;;;;5095636;28;20375;-62
2020/12/31 05:36:33;;;;;;;1.88;1.67;;;6.20;85.20;;;;;;5095463;28;20039;-62
2020/12/31 05:39:01;;;;;;;1.58;1.42;;;6.20;85.40;;;;;;5095782;28;20395;-62
2020/12/31 05:41:33;;;;;;;2.22;1.48;;;6.20;85.50;;;;;;5095424;28;20107;-62
2020/12/31 05:44:05;;;;;;;2.38;1.60;;;6.20;85.50;;;;;;5095001;28;20043;-62
2020/12/31 05:46:31;;;;;;;4.53;2.63;;;6.20;85.50;;;;;;5095296;28;20058;-62
2020/12/31 05:49:11;;;;;;;1.50;1.25;;;6.20;85.40;;;;;;5095381;28;20038;-62
2020/12/31 05:51:41;;;;;;;0.60;0.60;;;6.20;85.40;;;;;;5094676;28;20024;-62
2020/12/31 05:54:13;;;;;;;3.30;1.63;;;6.20;85.30;;;;;;5095250;28;20127;-62
2020/12/31 05:56:40;;;;;;;1.73;1.52;;;6.20;85.20;;;;;;5094579;28;20032;-62
2020/12/31 05:59:16;;;;;;;1.25;1.08;;;6.20;85.80;;;;;;5094913;28;20032;-62
2020/12/31 06:01:53;;;;;;;2.38;1.30;;;6.20;85.20;;;;;;5095247;28;20031;-62
2020/12/31 06:04:19;;;;;;;2.22;1.60;;;6.20;85.20;;;;;;5094564;28;20448;-62
2020/12/31 06:06:50;;;;;;;1.77;1.48;;;6.20;85.10;;;;;;5095011;28;20099;-62
2020/12/31 06:09:35;;;;;;;2.13;1.45;;;6.20;85.20;;;;;;5095041;28;20028;-62
2020/12/31 06:12:08;;;;;;;0.70;0.70;;;6.10;85.20;;;;;;5094392;28;20027;-62
2020/12/31 06:14:35;;;;;;;2.77;1.57;;;6.20;85.20;;;;;;5095235;28;20036;-62
2020/12/31 06:17:05;;;;;;;2.25;1.27;;;6.20;85.30;;;;;;5094791;28;20383;-62
2020/12/31 06:19:40;;;;;;;5.18;2.78;;;6.20;85.30;;;;;;5094065;28;20051;-62
2020/12/31 06:22:07;;;;;;;5.15;2.92;;;6.20;85.20;;;;;;5094353;28;20026;-62
2020/12/31 06:24:42;;;;;;;4.25;2.90;;;6.20;85.10;;;;;;5094904;28;20412;-62
2020/12/31 06:27:10;;;;;;;5.50;2.47;;;6.20;85.10;;;;;;5093012;28;20031;-62
2020/12/31 06:29:45;;;;;;;3.70;2.45;;;6.10;85.10;;;;;;5094581;28;20050;-62
2020/12/31 06:32:24;;;;;;;3.05;1.95;;;6.10;85.20;;;;;;5093705;28;20028;-62
2020/12/31 06:34:50;;;;;;;3.00;2.10;;;6.10;85.30;;;;;;5094826;28;20028;-62
2020/12/31 06:37:16;;;;;;;3.70;2.47;;;6.10;85.30;;;;;;5094604;28;20067;-62
2020/12/31 06:39:42;;;;;;;4.40;2.80;;;6.10;85.30;;;;;;5093382;28;20460;-62
2020/12/31 06:42:09;;;;;;;3.75;2.08;;;6.10;85.40;;;;;;5094552;28;20059;-62
2020/12/31 06:44:34;;;;;;;5.38;2.95;;;6.10;85.40;;;;;;5094198;28;20434;-62
2020/12/31 06:47:01;;;;;;;6.03;3.72;;;6.00;85.50;;;;;;5093326;28;20036;-62
2020/12/31 06:49:49;;;;;;;4.20;2.47;;;6.10;85.50;;;;;;5094249;28;20045;-62
2020/12/31 06:52:23;;;;;;;4.30;2.67;;;6.10;85.50;;;;;;5094269;28;20035;-62
2020/12/31 06:54:49;;;;;;;3.28;2.05;;;6.10;85.50;;;;;;5092990;28;20042;-62
2020/12/31 06:57:40;;;;;;;5.63;3.33;;;6.10;85.50;;;;;;5093920;28;20051;-62
2020/12/31 07:00:06;;;;;;;5.03;3.20;;;6.20;85.50;;;;;;5093566;28;20054;-62
2020/12/31 07:02:45;;;;;;;7.35;3.70;;;6.10;85.40;;;;;;5093932;28;20036;-62
2020/12/31 07:05:23;;;;;;;8.70;3.20;;;6.20;85.40;;;;;;5093747;28;20109;-62
2020/12/31 07:07:49;;;;;;;3.33;2.75;;;6.20;85.30;;;;;;5093165;28;20031;-62
2020/12/31 07:10:15;;;;;;;6.25;4.60;;;6.20;85.30;;;;;;5093854;28;20050;-62
2020/12/31 07:12:45;;;;;;;4.70;3.75;;;6.20;85.30;;;;;;5093776;28;20455;-62
2020/12/31 07:15:13;;;;;;;6.93;3.03;;;6.20;85.30;;;;;;5093020;28;20032;-62
2020/12/31 07:17:47;;;;;;;3.70;2.65;;;6.10;85.30;;;;;;5093573;28;20454;-62
2020/12/31 07:20:15;;;;;;;5.47;3.17;;;6.10;85.50;;;;;;5093492;28;20043;-62
2020/12/31 07:22:42;;;;;;;4.78;3.30;;;6.10;85.50;;;;;;5092831;28;20028;-62
2020/12/31 07:25:18;;;;;;;2.40;2.15;;;6.10;85.50;;;;;;5093585;28;20031;-62
2020/12/31 07:27:45;;;;;;;7.38;3.42;;;6.10;85.60;;;;;;5093590;28;20027;-62
2020/12/31 07:30:18;;;;;;;2.05;1.85;;;6.10;85.60;;;;;;5092925;28;20074;-62
2020/12/31 07:32:48;;;;;;;8.97;3.93;;;6.10;85.60;;;;;;5092606;28;20107;-62
2020/12/31 07:35:34;;;;;;;6.63;3.90;;;6.10;85.40;;;;;;5093064;28;20736;-62
2020/12/31 07:38:10;;;;;;;6.53;3.95;;;6.10;85.40;;;;;;5093312;28;20042;-62
2020/12/31 07:41:01;;;;;;;5.97;3.60;;;6.10;85.30;;;;;;5093332;28;20020;-62
2020/12/31 07:43:28;;;;;;;3.03;2.38;;;6.10;85.50;;;;;;5089547;28;20086;-62
2020/12/31 07:45:55;;;;;;;9.15;5.03;;;6.00;85.40;;;;;;5093270;28;20395;-62
2020/12/31 07:48:22;;;;;;;7.32;5.05;;;6.10;85.50;;;;;;5093112;28;20028;-62
2020/12/31 07:50:56;;;;;;;3.83;1.90;;;6.10;85.60;;;;;;5092403;28;20482;-62
2020/12/31 07:53:22;;;;;;;4.50;2.40;;;6.10;85.60;;;;;;5092641;28;20040;-62
2020/12/31 07:55:49;;;;;;;4.80;2.90;;;6.00;85.50;;;;;;5092875;28;20032;-62
2020/12/31 07:58:17;;;;;;;10.35;5.15;;;6.10;85.60;;;;;;5091331;28;20119;-62
2020/12/31 08:00:42;;;;;;;4.72;4.05;;;6.10;85.60;;;;;;5093128;28;20039;-62
2020/12/31 08:03:10;;;;;;;5.82;3.45;;;6.00;85.50;;;;;;5092818;28;20028;-62
2020/12/31 08:05:37;;;;;;;6.85;4.15;;;6.10;85.50;;;;;;5092360;28;20028;-62
2020/12/31 08:08:03;;;;;;;10.27;4.07;;;6.00;85.40;;;;;;5092817;28;20035;-62
2020/12/31 08:10:33;;;;;;;11.15;4.65;;;6.00;85.50;;;;;;5091898;28;20063;-62
2020/12/31 08:13:05;;;;;;;7.80;4.68;;;6.00;85.60;;;;;;5092845;28;20508;-61
2020/12/31 08:15:32;;;;;;;8.95;4.10;;;6.00;85.60;;;;;;5092549;28;20460;-62
2020/12/31 08:18:02;;;;;;;6.55;4.10;;;6.00;85.60;;;;;;5092057;28;20093;-62
2020/12/31 08:20:34;;;;;;;9.82;5.53;;;6.00;85.70;;;;;;5084077;28;20040;-60
2020/12/31 08:23:02;;;;;;;7.43;3.75;;;6.00;85.70;;;;;;5072626;28;20468;-63
2020/12/31 08:25:39;;;;;;;3.97;2.15;;;6.00;85.70;;;;;;5072951;28;20047;-62
2020/12/31 08:28:06;;;;;;;6.40;3.88;;;6.00;85.70;;;;;;5081679;28;20471;-63
2020/12/31 08:30:33;;;;;;;11.75;4.85;;;6.00;85.70;;;;;;5075600;28;20039;-61
2020/12/31 08:33:00;;;;;;;8.32;4.57;;;6.10;85.60;;;;;;5073219;28;20039;-62
2020/12/31 08:35:37;;;;;;;3.47;3.17;;;6.00;85.50;;;;;;5076870;28;20024;-62
2020/12/31 08:38:07;;;;;;;6.30;3.90;;;6.00;85.60;;;;;;5089697;28;20028;-62
2020/12/31 08:40:54;;;;;;;7.03;4.20;;;6.10;85.70;;;;;;5088955;28;20028;-63
2020/12/31 08:43:22;;;;;;;12.18;6.85;;;6.00;85.60;;;;;;5071412;28;20025;-63
2020/12/31 08:45:52;;;;;;;8.50;4.95;;;6.10;85.70;;;;;;5086372;28;20395;-62
2020/12/31 08:48:22;;;;;;;8.32;4.32;;;6.00;85.70;;;;;;5083884;28;20099;-62
2020/12/31 08:51:05;;;;;;;3.90;1.95;;;6.00;85.70;;;;;;5077825;28;20062;-62
2020/12/31 08:53:33;;;;;;;4.38;3.00;;;6.00;85.80;;;;;;5078150;28;20036;-62
2020/12/31 08:55:58;;;;;;;6.40;3.30;;;6.10;85.80;;;;;;5078916;28;20086;-63
2020/12/31 08:58:29;;;;;;;6.50;4.65;;;6.10;85.80;;;;;;5085614;28;20024;-62
2020/12/31 09:00:56;;;;;;;2.70;1.80;;;6.10;86.40;;;;;;5088034;28;20019;-62
2020/12/31 09:03:23;;;;;;;6.88;3.80;;;6.10;85.70;;;;;;5087397;28;20055;-62
2020/12/31 09:05:58;;;;;;;2.38;1.52;;;6.10;85.70;;;;;;5093590;28;20035;-62
2020/12/31 09:08:24;;;;;;;12.77;5.15;;;6.20;85.70;;;;;;5080141;28;20108;-62
2020/12/31 09:11:00;;;;;;;5.60;3.65;;;6.20;85.50;;;;;;5074919;28;20052;-62
2020/12/31 09:13:26;;;;;;;7.10;1.95;;;6.20;85.50;;;;;;5084950;28;20098;-62
2020/12/31 09:16:12;;;;;;;15.93;5.82;;;6.20;85.30;;;;;;5081175;28;20468;-62
2020/12/31 09:18:39;;;;;;;8.13;4.45;;;6.20;85.30;;;;;;5092480;28;20392;-62
2020/12/31 09:21:05;;;;;;;1.70;1.58;;;6.20;85.10;;;;;;5077051;28;20032;-62
2020/12/31 09:23:30;;;;;;;8.75;4.57;;;6.20;85.10;;;;;;5078625;28;20038;-62
2020/12/31 09:25:56;;;;;;;7.05;4.03;;;6.30;85.10;;;;;;5079500;28;20427;-62
2020/12/31 09:28:24;;;;;;;7.55;4.68;;;6.30;85.10;;;;;;5076913;28;20119;-62
2020/12/31 09:30:50;;;;;;;4.63;3.10;;;6.30;85.10;;;;;;5075370;28;20459;-62
2020/12/31 09:33:19;;;;;;;12.50;6.10;;;6.30;85.10;;;;;;5080618;28;20060;-62
2020/12/31 09:35:45;;;;;;;11.30;5.18;;;6.30;85.10;;;;;;5076768;28;20078;-62
2020/12/31 09:38:11;;;;;;;10.65;5.43;;;6.30;85.10;;;;;;5075740;28;20479;-62
2020/12/31 09:40:38;;;;;;;13.68;6.63;;;6.30;85.10;;;;;;5077765;28;20032;-62
2020/12/31 09:43:04;;;;;;;10.20;6.25;;;6.30;85.00;;;;;;5079004;28;20024;-63
2020/12/31 09:45:30;;;;;;;9.98;5.35;;;6.30;85.10;;;;;;5078107;28;20043;-62
2020/12/31 09:48:02;;;;;;;5.18;2.95;;;6.30;85.00;;;;;;5078725;28;20024;-64
2020/12/31 09:50:29;;;;;;;6.65;2.80;;;6.40;85.00;;;;;;5083227;28;20021;-61
2020/12/31 09:52:56;;;;;;;10.68;5.47;;;6.30;84.90;;;;;;5086610;28;20040;-64
2020/12/31 09:55:22;;;;;;;5.82;3.65;;;6.40;84.90;;;;;;5092958;28;20028;-68
2020/12/31 09:57:47;;;;;;;7.30;2.75;;;6.40;85.30;;;;;;5093593;28;20062;-62
2020/12/31 10:00:13;;;;;;;9.48;5.00;;;6.40;84.70;;;;;;5081530;28;20052;-63
2020/12/31 10:02:39;;;;;;;4.20;2.53;;;6.40;84.80;;;;;;5076577;28;20024;-63
2020/12/31 10:05:05;;;;;;;7.25;4.05;;;6.40;84.80;;;;;;5075830;28;20036;-63
2020/12/31 10:07:31;;;;;;;3.97;2.45;;;6.40;84.80;;;;;;5080028;28;20476;-65
2020/12/31 10:09:58;;;;;;;6.50;4.00;;;6.40;84.70;;;;;;5078036;28;20043;-65
2020/12/31 10:12:24;;;;;;;11.23;4.28;;;6.40;84.70;;;;;;5073213;28;20071;-65
2020/12/31 10:14:50;;;;;;;6.97;4.63;;;6.40;84.80;;;;;;5074937;28;20511;-62
2020/12/31 10:17:16;;;;;;;7.40;4.32;;;6.40;84.80;;;;;;5075462;28;20048;-59
2020/12/31 10:19:42;;;;;;;8.40;4.88;;;6.40;84.80;;;;;;5075286;28;20078;-60
2020/12/31 10:22:08;;;;;;;10.43;5.40;;;6.40;84.90;;;;;;5085666;28;20039;-60
2020/12/31 10:24:34;;;;;;;8.00;4.00;;;6.30;85.00;;;;;;5087753;28;20035;-62
2020/12/31 10:27:00;;;;;;;15.23;7.05;;;6.40;85.10;;;;;;5079901;28;20025;-61
2020/12/31 10:29:26;;;;;;;7.65;4.50;;;6.40;85.30;;;;;;5080325;28;20081;-63
2020/12/31 10:31:52;;;;;;;14.50;4.78;;;6.40;85.40;;;;;;5085052;28;20054;-62
2020/12/31 10:34:19;;;;;;;3.17;2.28;;;6.40;85.40;;;;;;5080059;28;20131;-62
2020/12/31 10:36:55;;;;;;;5.28;3.28;;;6.40;85.40;;;;;;5072462;28;20476;-62
2020/12/31 10:39:22;;;;;;;4.28;3.35;;;6.40;85.50;;;;;;5073307;28;20032;-62
2020/12/31 10:41:50;;;;;;;8.68;4.43;;;6.50;85.50;;;;;;5075112;28;20025;-62
2020/12/31 10:44:17;;;;;;;7.18;3.75;;;6.50;85.50;;;;;;5074638;28;20106;-62
2020/12/31 10:46:42;;;;;;;10.90;5.05;;;6.50;85.50;;;;;;5072901;28;20037;-62
2020/12/31 10:49:08;;;;;;;9.75;6.30;;;6.50;85.60;;;;;;5075498;28;20040;-62
2020/12/31 10:51:35;;;;;;;12.20;5.95;;;6.50;85.60;;;;;;5074011;28;20033;-62
2020/12/31 10:54:03;;;;;;;10.02;5.53;;;6.50;85.60;;;;;;5071935;28;20105;-62
2020/12/31 10:56:28;;;;;;;4.93;3.40;;;6.50;85.70;;;;;;5073538;28;20107;-62
2020/12/31 10:58:54;;;;;;;5.15;3.15;;;6.50;85.70;;;;;;5076743;28;20264;-61
2020/12/31 11:01:20;;;;;;;10.52;5.72;;;6.50;85.80;;;;;;5072043;28;20111;-62
2020/12/31 11:03:46;;;;;;;7.47;4.45;;;6.50;85.80;;;;;;5076567;28;20046;-61
2020/12/31 11:06:23;;;;;;;7.30;4.18;;;6.60;85.80;;;;;;5078081;28;20032;-62
2020/12/31 11:08:48;;;;;;;4.28;3.08;;;6.50;85.80;;;;;;5085021;28;20106;-62
2020/12/31 11:11:16;;;;;;;8.85;4.85;;;6.60;85.90;;;;;;5087697;28;20035;-62
2020/12/31 11:13:42;;;;;;;8.45;4.57;;;6.60;85.90;;;;;;5084574;28;20077;-62
2020/12/31 11:16:08;;;;;;;4.05;2.72;;;6.60;86.00;;;;;;5074262;28;20032;-62
2020/12/31 11:18:34;;;;;;;1.60;1.40;;;6.60;86.00;;;;;;5082976;28;20047;-62
2020/12/31 11:20:59;;;;;;;4.65;2.95;;;6.60;86.10;;;;;;5071979;28;20511;-62
2020/12/31 11:23:25;;;;;;;2.63;1.88;;;6.60;86.10;;;;;;5076333;28;20116;-62
2020/12/31 11:25:50;;;;;;;4.95;2.90;;;6.60;86.20;;;;;;5081632;28;20043;-61
2020/12/31 11:28:16;;;;;;;4.60;2.75;;;6.60;86.20;;;;;;5077743;28;20459;-62
2020/12/31 11:30:43;;;;;;;7.00;4.43;;;6.60;86.20;;;;;;5082640;28;20036;-62
2020/12/31 11:33:09;;;;;;;8.65;4.13;;;6.60;86.10;;;;;;5080313;28;20083;-62
2020/12/31 11:35:34;;;;;;;9.68;4.00;;;6.60;86.10;;;;;;5092833;28;20416;-62
2020/12/31 11:38:00;;;;;;;7.55;4.72;;;6.60;86.20;;;;;;5093203;28;20149;-62
2020/12/31 11:40:28;;;;;;;6.53;4.18;;;6.60;86.20;;;;;;5093360;28;20383;-62
2020/12/31 11:42:54;;;;;;;3.63;2.22;;;6.60;86.30;;;;;;5092425;28;20024;-62
2020/12/31 11:45:20;;;;;;;7.72;4.97;;;6.60;86.90;;;;;;5082140;28;20472;-62
2020/12/31 11:47:46;;;;;;;8.45;4.70;;;6.70;86.40;;;;;;5090005;28;20026;-62
2020/12/31 11:50:12;;;;;;;13.15;5.20;;;6.70;86.40;;;;;;5078094;28;20055;-62
2020/12/31 11:52:37;;;;;;;7.15;3.13;;;6.60;86.30;;;;;;5093154;28;20059;-61
2020/12/31 11:55:03;;;;;;;7.60;3.10;;;6.60;86.40;;;;;;5092698;28;20044;-61
2020/12/31 11:57:29;;;;;;;3.35;2.75;;;6.60;86.50;;;;;;5089758;28;20443;-61
2020/12/31 11:59:55;;;;;;;8.65;4.38;;;6.70;86.50;;;;;;5079567;28;20059;-62
2020/12/31 12:02:20;;;;;;;3.40;2.25;;;6.70;86.50;;;;;;5075420;28;20028;-62
2020/12/31 12:04:46;;;;;;;8.95;5.07;;;6.70;86.40;;;;;;5071823;28;20530;-62
2020/12/31 12:07:12;;;;;;;5.78;3.65;;;6.70;86.30;;;;;;5074842;28;20485;-61
2020/12/31 12:09:37;;;;;;;8.30;3.63;;;6.70;86.30;;;;;;5070870;28;20392;-62
2020/12/31 12:12:06;;;;;;;10.40;6.00;;;6.70;86.20;;;;;;5080094;28;20031;-62
2020/12/31 12:14:32;;;;;;;13.35;6.68;;;6.70;86.80;;;;;;5089510;28;20027;-62
2020/12/31 12:16:59;;;;;;;11.90;4.18;;;6.70;86.30;;;;;;5088085;28;20392;-63
2020/12/31 12:19:25;;;;;;;12.85;6.43;;;6.70;86.40;;;;;;5087325;28;20047;-62
2020/12/31 12:21:51;;;;;;;8.20;4.38;;;6.70;86.40;;;;;;5090899;28;20031;-62
2020/12/31 12:24:16;;;;;;;8.88;3.47;;;6.80;86.40;;;;;;5088864;28;20455;-63
2020/12/31 12:26:42;;;;;;;3.92;2.25;;;6.80;86.50;;;;;;5090870;28;20076;-62
2020/12/31 12:29:08;;;;;;;11.20;6.05;;;6.70;86.40;;;;;;5090445;28;20136;-62
2020/12/31 12:31:35;;;;;;;12.57;7.07;;;6.80;86.50;;;;;;5085670;28;20036;-61
2020/12/31 12:34:02;;;;;;;9.65;4.38;;;6.80;86.40;;;;;;5079988;28;20788;-62
2020/12/31 12:36:28;;;;;;;5.95;3.60;;;6.70;86.30;;;;;;5084046;28;20028;-62
2020/12/31 12:38:54;;;;;;;10.02;5.22;;;6.70;86.60;;;;;;5078767;28;20683;-62
2020/12/31 12:41:20;;;;;;;4.68;2.90;;;6.70;86.70;;;;;;5080888;28;20067;-62
2020/12/31 12:43:46;;;;;;;6.20;3.45;;;6.80;86.90;;;;;;5081127;28;20074;-62
2020/12/31 12:46:18;;;;;;;8.43;3.58;;;6.70;86.80;;;;;;5079158;28;20078;-62
2020/12/31 12:48:45;;;;;;;11.93;5.88;;;6.70;86.90;;;;;;5073313;28;20163;-61
2020/12/31 12:51:11;;;;;;;12.32;4.45;;;6.80;86.80;;;;;;5074022;28;20111;-64
2020/12/31 12:53:36;;;;;;;9.57;5.03;;;6.80;86.70;;;;;;5072684;28;20135;-62
2020/12/31 12:56:03;;;;;;;7.03;4.35;;;6.80;86.80;;;;;;5080053;28;20085;-61
2020/12/31 12:58:29;;;;;;;13.48;6.35;;;6.80;86.80;;;;;;5081154;28;20128;-61
2020/12/31 13:00:55;;;;;;;10.38;5.45;;;6.80;86.70;;;;;;5081429;28;20103;-61